Time;durP1;ratioP1;P1;durP2;ratioP2;P2;SDS_P1;SDS_P2;PMS_P1;PMS_P2;Temp;Humidity;BMP_temperature;BMP_pressure;BME280_temperature;BME280_humidity;BME280_pressure;Samples;Min_cycle;Max_cycle;Signal;HPM_P1;HPM_P2
2022/06/02 00:02:39;;;;;;;;;;;;;;;10.22;57.47168;102064.5;;;;-82
2022/06/02 00:07:43;;;;;;;;;;;;;;;10.18;57.58887;102069.4;;;;-82
2022/06/02 00:12:34;;;;;;;;;;;;;;;10.08;57.69727;102071.5;;;;-82
2022/06/02 00:17:37;;;;;;;;;;;;;;;10;57.69824;102073.9;;;;-82
2022/06/02 00:22:34;;;;;;;;;;;;;;;9.94;57.7793;102075.7;;;;-83
2022/06/02 00:27:38;;;;;;;;;;;;;;;9.92;57.77734;102075;;;;-83
2022/06/02 00:29:30;;;;;;;5.2;2.3;;;;;;;;;;;;;-83
2022/06/02 00:32:37;;;;;;;;;;;;;;;9.89;57.66113;102080.5;;;;-81
2022/06/02 00:37:41;;;;;;;;;;;;;;;9.86;57.78027;102084.9;;;;-83
2022/06/02 00:42:44;;;;;;;;;;;;;;;9.79;57.70313;102089.5;;;;-83
2022/06/02 00:47:35;;;;;;;;;;;;;;;9.75;58.00977;102091.5;;;;-82
2022/06/02 00:52:34;;;;;;;;;;;;;;;9.68;58.13379;102090.5;;;;-82
2022/06/02 00:57:35;;;;;;;;;;;;;;;9.63;58.14941;102092.3;;;;-83
2022/06/02 00:59:33;;;;;;;3.6;2.3;;;;;;;;;;;;;-84
2022/06/02 01:02:31;;;;;;;;;;;;;;;9.59;58.20996;102094.7;;;;-82
2022/06/02 01:07:39;;;;;;;;;;;;;;;9.54;58.25879;102095.2;;;;-81
2022/06/02 01:12:41;;;;;;;;;;;;;;;9.46;58.01563;102101.1;;;;-81
2022/06/02 01:17:40;;;;;;;;;;;;;;;9.41;58.01953;102107;;;;-84
2022/06/02 01:22:43;;;;;;;;;;;;;;;9.37;58.28027;102104.5;;;;-81
2022/06/02 01:27:55;;;;;;;;;;;;;;;9.34;58.27734;102114.9;;;;-81
2022/06/02 01:29:36;;;;;;;3.6;2.3;;;;;;;;;;;;;-83
2022/06/02 01:32:37;;;;;;;;;;;;;;;9.28;58.46875;102110.3;;;;-81
2022/06/02 01:37:35;;;;;;;;;;;;;;;9.22;58.34961;102107.4;;;;-83
2022/06/02 01:42:39;;;;;;;;;;;;;;;9.18;58.38965;102109.8;;;;-82
2022/06/02 01:47:36;;;;;;;;;;;;;;;9.11;58.34668;102108.6;;;;-82
2022/06/02 01:52:40;;;;;;;;;;;;;;;9.07;58.50684;102109.2;;;;-81
2022/06/02 01:57:45;;;;;;;;;;;;;;;9.02;58.3457;102111.9;;;;-82
2022/06/02 01:59:42;;;;;;;4.3;2.3;;;;;;;;;;;;;-81
2022/06/02 02:02:36;;;;;;;;;;;;;;;8.96;58.55957;102110.4;;;;-82
2022/06/02 02:07:35;;;;;;;;;;;;;;;8.92;58.64258;102104.5;;;;-81
2022/06/02 02:12:34;;;;;;;;;;;;;;;8.87;58.64648;102105.4;;;;-83
2022/06/02 02:17:45;;;;;;;;;;;;;;;8.8;58.61621;102107.3;;;;-80
2022/06/02 02:22:35;;;;;;;;;;;;;;;8.74;58.56348;102104.9;;;;-81
2022/06/02 02:28:02;;;;;;;;;;;;;;;8.69;58.65527;102104.1;;;;-81
2022/06/02 02:29:34;;;;;;;3.9;2.1;;;;;;;;;;;;;-82
2022/06/02 02:32:35;;;;;;;;;;;;;;;8.59;58.6416;102103.9;;;;-83
2022/06/02 02:37:38;;;;;;;;;;;;;;;8.52;58.85449;102102.4;;;;-82
2022/06/02 02:42:34;;;;;;;;;;;;;;;8.47;58.73828;102105.3;;;;-81
2022/06/02 02:47:33;;;;;;;;;;;;;;;8.4;58.87207;102102.6;;;;-81
2022/06/02 02:52:37;;;;;;;;;;;;;;;8.42;58.72949;102104.8;;;;-82
2022/06/02 02:57:39;;;;;;;;;;;;;;;8.35;58.83105;102106.5;;;;-82
2022/06/02 02:59:31;;;;;;;2.9;1.8;;;;;;;;;;;;;-84
2022/06/02 03:02:33;;;;;;;;;;;;;;;8.31;58.88184;102109.3;;;;-82
2022/06/02 03:07:37;;;;;;;;;;;;;;;8.26;58.94141;102113.5;;;;-80
2022/06/02 03:12:36;;;;;;;;;;;;;;;8.22;59.03418;102116.9;;;;-82
2022/06/02 03:17:39;;;;;;;;;;;;;;;8.17;59.01758;102121.3;;;;-82
2022/06/02 03:22:36;;;;;;;;;;;;;;;8.13;59.0459;102121.4;;;;-82
2022/06/02 03:27:55;;;;;;;;;;;;;;;8.1;58.96289;102122;;;;-82
2022/06/02 03:29:33;;;;;;;3.2;1.8;;;;;;;;;;;;;-83
2022/06/02 03:32:44;;;;;;;;;;;;;;;8.05;59.08984;102129.6;;;;-82
2022/06/02 03:37:46;;;;;;;;;;;;;;;7.99;59.05859;102132.8;;;;-82
2022/06/02 03:42:43;;;;;;;;;;;;;;;7.96;59.05664;102135.7;;;;-82
2022/06/02 03:47:43;;;;;;;;;;;;;;;7.91;59.08203;102138.9;;;;-82
2022/06/02 03:52:37;;;;;;;;;;;;;;;7.87;59.01074;102137.5;;;;-83
2022/06/02 03:57:46;;;;;;;;;;;;;;;7.88;59.1543;102149.1;;;;-82
2022/06/02 03:59:36;;;;;;;3;1.8;;;;;;;;;;;;;-81
2022/06/02 04:02:32;;;;;;;;;;;;;;;7.9;59.74316;102153.7;;;;-83
2022/06/02 04:07:39;;;;;;;;;;;;;;;7.96;59.65234;102154;;;;-81
2022/06/02 04:17:35;;;;;;;;;;;;;;;8;59.62402;102158.6;;;;-80
2022/06/02 04:22:43;;;;;;;;;;;;;;;8.01;59.4834;102161.5;;;;-80
2022/06/02 04:27:36;;;;;;;;;;;;;;;8.06;59.36914;102165.6;;;;-82
2022/06/02 04:29:56;;;;;;;2.7;1.4;;;;;;;;;;;;;-81
2022/06/02 04:32:40;;;;;;;;;;;;;;;8.08;59.34961;102171;;;;-82
2022/06/02 04:37:43;;;;;;;;;;;;;;;8.11;59.17578;102171.2;;;;-84
2022/06/02 04:42:40;;;;;;;;;;;;;;;8.12;58.9668;102183.3;;;;-81
2022/06/02 04:47:38;;;;;;;;;;;;;;;8.15;58.9707;102186.9;;;;-83
2022/06/02 04:52:38;;;;;;;;;;;;;;;8.17;58.85156;102192.3;;;;-80
2022/06/02 04:57:39;;;;;;;;;;;;;;;8.21;58.70215;102192.7;;;;-82
2022/06/02 04:59:36;;;;;;;2.1;1.2;;;;;;;;;;;;;-81
2022/06/02 05:02:36;;;;;;;;;;;;;;;8.27;58.56543;102202.7;;;;-80
2022/06/02 05:07:43;;;;;;;;;;;;;;;8.32;58.33887;102207.4;;;;-82
2022/06/02 05:12:36;;;;;;;;;;;;;;;8.38;58.10547;102205;;;;-82
2022/06/02 05:17:44;;;;;;;;;;;;;;;8.49;58.21777;102212.1;;;;-82
2022/06/02 05:22:51;;;;;;;;;;;;;;;8.84;59.03125;102212.1;;;;-83
2022/06/02 05:27:42;;;;;;;;;;;;;;;9.59;56.63281;102220.2;;;;-82
2022/06/02 05:29:47;;;;;;;2.4;1.3;;;;;;;;;;;;;-82
2022/06/02 05:32:42;;;;;;;;;;;;;;;10.49;55.15625;102216.9;;;;-83
2022/06/02 05:37:44;;;;;;;;;;;;;;;11.44;53.66797;102215.3;;;;-82
2022/06/02 05:42:48;;;;;;;;;;;;;;;12.34;52.45605;102212.3;;;;-82
2022/06/02 05:47:37;;;;;;;;;;;;;;;13.09;51.45898;102217;;;;-82
2022/06/02 05:52:41;;;;;;;;;;;;;;;13.84;50.23047;102223.2;;;;-82
2022/06/02 05:57:39;;;;;;;;;;;;;;;14.55;49.30859;102221.3;;;;-82
2022/06/02 05:59:46;;;;;;;2.3;1.5;;;;;;;;;;;;;-80
2022/06/02 06:02:43;;;;;;;;;;;;;;;15.24;48.56152;102225.1;;;;-81
2022/06/02 06:07:46;;;;;;;;;;;;;;;15.9;47.80957;102227.3;;;;-82
2022/06/02 06:12:47;;;;;;;;;;;;;;;16.47;47.15723;102224.1;;;;-82
2022/06/02 06:17:39;;;;;;;;;;;;;;;16.98;46.59961;102224.2;;;;-82
2022/06/02 06:22:41;;;;;;;;;;;;;;;17.43;46.13672;102218.8;;;;-82
2022/06/02 06:27:36;;;;;;;;;;;;;;;17.85;46.12305;102220.6;;;;-82
2022/06/02 06:29:43;;;;;;;2.9;1.7;;;;;;;;;;;;;-81
2022/06/02 06:32:38;;;;;;;;;;;;;;;18.28;45.51953;102215.5;;;;-84
2022/06/02 06:37:47;;;;;;;;;;;;;;;18.7;45.28906;102213.9;;;;-81
2022/06/02 06:42:40;;;;;;;;;;;;;;;19.04;45.06152;102221.1;;;;-80
2022/06/02 06:47:36;;;;;;;;;;;;;;;19.37;44.54785;102218.4;;;;-82
2022/06/02 06:52:38;;;;;;;;;;;;;;;19.44;44.60059;102221.3;;;;-81
2022/06/02 06:57:35;;;;;;;;;;;;;;;19.59;44.67188;102220.6;;;;-81
2022/06/02 06:59:47;;;;;;;2.6;1.2;;;;;;;;;;;;;-81
2022/06/02 07:02:40;;;;;;;;;;;;;;;19.9;44.46289;102224.4;;;;-83
2022/06/02 07:07:46;;;;;;;;;;;;;;;20.29;43.75977;102228.6;;;;-82
2022/06/02 07:12:54;;;;;;;;;;;;;;;20.67;43.51074;102231.3;;;;-83
2022/06/02 07:17:38;;;;;;;;;;;;;;;21.05;43.12305;102231.3;;;;-83
2022/06/02 07:22:39;;;;;;;;;;;;;;;21.43;42.81641;102239.6;;;;-81
2022/06/02 07:27:38;;;;;;;;;;;;;;;21.79;42.37988;102242.7;;;;-83
2022/06/02 07:29:43;;;;;;;3.9;1.1;;;;;;;;;;;;;-80
2022/06/02 07:32:40;;;;;;;;;;;;;;;21.98;42.07617;102250.1;;;;-83
2022/06/02 07:37:38;;;;;;;;;;;;;;;22.13;41.88379;102262.1;;;;-81
2022/06/02 07:42:45;;;;;;;;;;;;;;;22.35;41.38672;102265.8;;;;-83
2022/06/02 07:47:41;;;;;;;;;;;;;;;22.7;41.2002;102272.7;;;;-81
2022/06/02 07:52:36;;;;;;;;;;;;;;;23.11;40.63965;102269.6;;;;-81
2022/06/02 07:57:37;;;;;;;;;;;;;;;23.51;40.00781;102271.6;;;;-84
2022/06/02 07:59:47;;;;;;;2.1;1.1;;;;;;;;;;;;;-83
2022/06/02 08:02:38;;;;;;;;;;;;;;;23.78;39.74219;102278.6;;;;-82
2022/06/02 08:07:42;;;;;;;;;;;;;;;24;39.51953;102276.2;;;;-83
2022/06/02 08:12:39;;;;;;;;;;;;;;;24.17;39.19922;102280.2;;;;-83
2022/06/02 08:17:45;;;;;;;;;;;;;;;24.42;38.97852;102280.7;;;;-82
2022/06/02 08:22:35;;;;;;;;;;;;;;;24.69;38.58691;102289;;;;-83
2022/06/02 08:27:51;;;;;;;;;;;;;;;24.95;38.2041;102291.8;;;;-82
2022/06/02 08:29:55;;;;;;;1.8;1;;;;;;;;;;;;;-79
2022/06/02 08:32:41;;;;;;;;;;;;;;;25.25;37.7998;102288.6;;;;-81
2022/06/02 08:37:35;;;;;;;;;;;;;;;25.5;37.65918;102290.1;;;;-82
2022/06/02 08:42:45;;;;;;;;;;;;;;;25.69;37.01367;102299;;;;-82
2022/06/02 08:47:47;;;;;;;;;;;;;;;25.82;37.05859;102302.3;;;;-84
2022/06/02 08:52:58;;;;;;;;;;;;;;;26.11;36.82617;102311.7;;;;-82
2022/06/02 08:57:56;;;;;;;;;;;;;;;26.44;36.29688;102315.6;;;;-81
2022/06/02 08:59:58;;;;;;;2.4;1.1;;;;;;;;;;;;;-82
2022/06/02 09:02:47;;;;;;;;;;;;;;;26.59;35.83203;102314;;;;-83
2022/06/02 09:07:49;;;;;;;;;;;;;;;26.78;35.83594;102310.9;;;;-81
2022/06/02 09:12:45;;;;;;;;;;;;;;;27.03;35.36621;102317.6;;;;-85
2022/06/02 09:17:39;;;;;;;;;;;;;;;27.22;35.05566;102319.6;;;;-82
2022/06/02 09:22:51;;;;;;;;;;;;;;;27.42;35.01367;102320.3;;;;-83
2022/06/02 09:27:48;;;;;;;;;;;;;;;27.72;34.59277;102320.5;;;;-82
2022/06/02 09:29:59;;;;;;;2.5;1;;;;;;;;;;;;;-82
2022/06/02 09:32:36;;;;;;;;;;;;;;;28;34.25195;102322.4;;;;-83
2022/06/02 09:37:41;;;;;;;;;;;;;;;28.24;33.95508;102322.7;;;;-83
2022/06/02 09:42:39;;;;;;;;;;;;;;;28.44;33.67871;102321;;;;-82
2022/06/02 09:47:44;;;;;;;;;;;;;;;28.7;33.26563;102321.1;;;;-83
2022/06/02 09:52:46;;;;;;;;;;;;;;;28.97;33.30859;102312.5;;;;-81
2022/06/02 10:00:11;;;;;;;2.3;1;;;;;;;;;;;;;-82
2022/06/02 10:02:46;;;;;;;;;;;;;;;29.45;32.5127;102315;;;;-82
2022/06/02 10:07:54;;;;;;;;;;;;;;;29.69;32.18945;102311.8;;;;-83
2022/06/02 10:17:42;;;;;;;;;;;;;;;30.14;32.31543;102319.2;;;;-84
2022/06/02 10:22:39;;;;;;;;;;;;;;;30.35;31.75586;102325.9;;;;-83
2022/06/02 10:27:46;;;;;;;;;;;;;;;30.53;31.69824;102316.1;;;;-82
2022/06/02 10:30:26;;;;;;;1.7;0.8;;;;;;;;;;;;;-83
2022/06/02 10:32:46;;;;;;;;;;;;;;;30.71;30.79395;102314.4;;;;-83
2022/06/02 10:37:47;;;;;;;;;;;;;;;30.9;31.01758;102305.8;;;;-83
2022/06/02 10:42:54;;;;;;;;;;;;;;;30.99;30.82422;102292.1;;;;-80
2022/06/02 10:47:42;;;;;;;;;;;;;;;31.16;30.91797;102301.3;;;;-83
2022/06/02 10:52:45;;;;;;;;;;;;;;;31.33;31.28223;102302.6;;;;-82
2022/06/02 10:57:52;;;;;;;;;;;;;;;31.46;31.24512;102298.1;;;;-87
2022/06/02 11:02:54;;;;;;;;;;;;;;;31.57;31.57031;102303;;;;-87
2022/06/02 11:18:06;;;;;;;;;;;;;;;32.06;31.30957;102291.8;;;;-88
2022/06/02 11:22:58;;;;;;;;;;;;;;;32.21;30.43555;102284.8;;;;-86
2022/06/02 11:27:42;;;;;;;;;;;;;;;32.5;28.90918;102283;;;;-83
2022/06/02 11:30:23;;;;;;;1;0.6;;;;;;;;;;;;;-84
2022/06/02 11:32:42;;;;;;;;;;;;;;;32.71;28.47363;102284.8;;;;-84
2022/06/02 11:37:42;;;;;;;;;;;;;;;32.78;28.50098;102274.1;;;;-82
2022/06/02 11:42:46;;;;;;;;;;;;;;;32.88;28.44824;102264.4;;;;-82
2022/06/02 11:47:48;;;;;;;;;;;;;;;32.95;28.42969;102260.4;;;;-83
2022/06/02 11:52:51;;;;;;;;;;;;;;;33.04;29.4873;102257;;;;-83
2022/06/02 11:57:49;;;;;;;;;;;;;;;33.16;28.57227;102252;;;;-83
2022/06/02 12:00:34;;;;;;;1.5;0.7;;;;;;;;;;;;;-84
2022/06/02 12:02:44;;;;;;;;;;;;;;;33.3;27.84766;102252.8;;;;-82
2022/06/02 12:07:45;;;;;;;;;;;;;;;33.38;27.65137;102252.9;;;;-82
2022/06/02 12:12:38;;;;;;;;;;;;;;;33.37;28.7041;102250.2;;;;-82
2022/06/02 12:17:55;;;;;;;;;;;;;;;33.51;27.57617;102252.3;;;;-82
2022/06/02 12:22:48;;;;;;;;;;;;;;;33.71;27.10352;102247.8;;;;-83
2022/06/02 12:28:00;;;;;;;;;;;;;;;33.89;27.77734;102247.6;;;;-82
2022/06/02 12:30:29;;;;;;;1.5;0.8;;;;;;;;;;;;;-82
2022/06/02 12:32:42;;;;;;;;;;;;;;;34.13;26.77246;102256;;;;-82
2022/06/02 12:37:58;;;;;;;;;;;;;;;34.05;27.27734;102257.2;;;;-81
2022/06/02 12:42:51;;;;;;;;;;;;;;;33.63;27.9502;102254.3;;;;-85
2022/06/02 12:47:45;;;;;;;;;;;;;;;33.13;28.97266;102254;;;;-84
2022/06/02 12:52:49;;;;;;;;;;;;;;;32.61;29.70703;102246;;;;-81
2022/06/02 12:57:53;;;;;;;;;;;;;;;32.31;30.84277;102239.8;;;;-82
2022/06/02 13:00:31;;;;;;;1.4;0.9;;;;;;;;;;;;;-82
2022/06/02 13:07:59;;;;;;;;;;;;;;;32.39;29.19629;102240.8;;;;-83
2022/06/02 13:12:42;;;;;;;;;;;;;;;32.49;28.41211;102241.4;;;;-84
2022/06/02 13:17:47;;;;;;;;;;;;;;;32.68;28.11719;102243.1;;;;-81
2022/06/02 13:22:55;;;;;;;;;;;;;;;32.73;28.13281;102248.1;;;;-82
2022/06/02 13:27:45;;;;;;;;;;;;;;;32.42;28.03027;102252.6;;;;-80
2022/06/02 13:30:40;;;;;;;1.2;0.8;;;;;;;;;;;;;-82
2022/06/02 13:32:47;;;;;;;;;;;;;;;32.02;29.58594;102256.4;;;;-82
2022/06/02 13:37:41;;;;;;;;;;;;;;;31.54;30.06152;102257.6;;;;-83
2022/06/02 13:42:53;;;;;;;;;;;;;;;31.12;31.39746;102262.7;;;;-83
2022/06/02 13:47:43;;;;;;;;;;;;;;;30.83;32.11816;102257.7;;;;-82
2022/06/02 13:52:53;;;;;;;;;;;;;;;30.75;31.27832;102254.8;;;;-82
2022/06/02 13:57:44;;;;;;;;;;;;;;;30.68;30.83887;102245.4;;;;-83
2022/06/02 14:00:52;;;;;;;3.7;1;;;;;;;;;;;;;-83
2022/06/02 14:02:42;;;;;;;;;;;;;;;30.59;31.15039;102238.8;;;;-84
2022/06/02 14:07:47;;;;;;;;;;;;;;;30.65;31.20117;102239.2;;;;-83
2022/06/02 14:12:47;;;;;;;;;;;;;;;30.67;31.04883;102234.1;;;;-82
2022/06/02 14:17:53;;;;;;;;;;;;;;;;;;;;;
2022/06/02 14:22:40;;;;;;;;;;;;;;;30.78;31.02246;102239;;;;-84
2022/06/02 14:27:37;;;;;;;;;;;;;;;30.83;31.07227;102241.1;;;;-77
2022/06/02 14:30:42;;;;;;;1.9;1;;;;;;;;;;;;;-76
2022/06/02 14:32:38;;;;;;;;;;;;;;;30.84;31.50781;102243.8;;;;-78
2022/06/02 14:37:33;;;;;;;;;;;;;;;30.79;31.36328;102246.2;;;;-77
2022/06/02 14:47:40;;;;;;;;;;;;;;;30.8;31.34082;102232.1;;;;-76
2022/06/02 14:52:43;;;;;;;;;;;;;;;30.84;31.17871;102229.9;;;;-77
2022/06/02 14:57:37;;;;;;;;;;;;;;;30.78;31.47949;102233.9;;;;-77
2022/06/02 15:00:50;;;;;;;2;0.9;;;;;;;;;;;;;-78
2022/06/02 15:02:43;;;;;;;;;;;;;;;30.7;31.75684;102234.3;;;;-78
2022/06/02 15:07:41;;;;;;;;;;;;;;;30.7;31.48633;102236.1;;;;-76
2022/06/02 15:12:45;;;;;;;;;;;;;;;30.66;31.68262;102235.8;;;;-77
2022/06/02 15:17:39;;;;;;;;;;;;;;;30.5;31.4375;102228.4;;;;-76
2022/06/02 15:22:44;;;;;;;;;;;;;;;30.45;31.53906;102232.2;;;;-75
2022/06/02 15:27:53;;;;;;;;;;;;;;;30.33;31.86035;102230.1;;;;-77
2022/06/02 15:30:54;;;;;;;2.8;1;;;;;;;;;;;;;-78
2022/06/02 15:32:55;;;;;;;;;;;;;;;30.17;31.88379;102220.9;;;;-78
2022/06/02 15:37:41;;;;;;;;;;;;;;;30.03;32.1084;102217.2;;;;-77
2022/06/02 15:42:41;;;;;;;;;;;;;;;29.88;32.30957;102217.5;;;;-77
2022/06/02 15:47:48;;;;;;;;;;;;;;;29.83;32.11816;102213.4;;;;-80
2022/06/02 15:52:51;;;;;;;;;;;;;;;29.69;32.17871;102207.4;;;;-76
2022/06/02 15:57:44;;;;;;;;;;;;;;;29.45;32.2666;102207.4;;;;-79
2022/06/02 16:01:06;;;;;;;2.4;1;;;;;;;;;;;;;-78
2022/06/02 16:02:41;;;;;;;;;;;;;;;29.17;32.41113;102200.8;;;;-76
2022/06/02 16:07:41;;;;;;;;;;;;;;;28.84;32.70313;102199.6;;;;-77
2022/06/02 16:12:41;;;;;;;;;;;;;;;28.59;33.07031;102193.3;;;;-78
2022/06/02 16:17:45;;;;;;;;;;;;;;;28.35;33.19238;102189.3;;;;-76
2022/06/02 16:22:43;;;;;;;;;;;;;;;28.1;33.26855;102183.1;;;;-78
2022/06/02 16:27:53;;;;;;;;;;;;;;;27.86;33.65918;102178.8;;;;-74
2022/06/02 16:31:10;;;;;;;3.7;1;;;;;;;;;;;;;-78
2022/06/02 16:32:46;;;;;;;;;;;;;;;27.74;33.97656;102175.2;;;;-76
2022/06/02 16:37:44;;;;;;;;;;;;;;;27.55;34.30078;102171.7;;;;-77
2022/06/02 16:42:51;;;;;;;;;;;;;;;27.33;34.69141;102176.6;;;;-76
2022/06/02 16:47:41;;;;;;;;;;;;;;;27.03;34.55176;102174.5;;;;-75
2022/06/02 16:52:56;;;;;;;;;;;;;;;26.79;34.76563;102174;;;;-76
2022/06/02 16:57:42;;;;;;;;;;;;;;;26.63;35.05566;102170.2;;;;-76
2022/06/02 17:01:05;;;;;;;2.1;1;;;;;;;;;;;;;-75
2022/06/02 17:02:49;;;;;;;;;;;;;;;26.47;35.43848;102180.5;;;;-76
2022/06/02 17:07:36;;;;;;;;;;;;;;;26.27;36.02734;102177.8;;;;-78
2022/06/02 17:12:39;;;;;;;;;;;;;;;26.07;36.11621;102179.5;;;;-76
2022/06/02 17:17:35;;;;;;;;;;;;;;;25.86;35.7627;102184.6;;;;-78
2022/06/02 17:22:42;;;;;;;;;;;;;;;25.67;36.22363;102183.3;;;;-74
2022/06/02 17:27:38;;;;;;;;;;;;;;;25.47;36.31152;102186.3;;;;-75
2022/06/02 17:31:12;;;;;;;2.7;1.1;;;;;;;;;;;;;-75
2022/06/02 17:32:45;;;;;;;;;;;;;;;25.26;36.50293;102178.4;;;;-76
2022/06/02 17:37:41;;;;;;;;;;;;;;;25.08;36.70801;102186.8;;;;-77
2022/06/02 17:42:42;;;;;;;;;;;;;;;24.89;36.62305;102188.8;;;;-77
2022/06/02 17:47:41;;;;;;;;;;;;;;;24.73;36.76074;102184.6;;;;-77
2022/06/02 17:52:35;;;;;;;;;;;;;;;24.53;36.90723;102188.9;;;;-77
2022/06/02 17:57:49;;;;;;;;;;;;;;;24.36;37.22754;102191.3;;;;-77
2022/06/02 18:01:14;;;;;;;2.2;1.1;;;;;;;;;;;;;-77
2022/06/02 18:02:36;;;;;;;;;;;;;;;24.18;37.15625;102190.3;;;;-78
2022/06/02 18:07:37;;;;;;;;;;;;;;;23.98;37.37012;102191.9;;;;-78
2022/06/02 18:12:37;;;;;;;;;;;;;;;23.83;37.50781;102189.5;;;;-77
2022/06/02 18:17:50;;;;;;;;;;;;;;;23.63;37.38672;102189.3;;;;-76
2022/06/02 18:22:42;;;;;;;;;;;;;;;23.47;37.37305;102188.3;;;;-76
2022/06/02 18:27:56;;;;;;;;;;;;;;;23.33;37.53516;102186.6;;;;-78
2022/06/02 18:31:20;;;;;;;1.8;1.1;;;;;;;;;;;;;-85
2022/06/02 18:32:57;;;;;;;;;;;;;;;23.22;37.89453;102195.2;;;;-86
2022/06/02 18:37:51;;;;;;;;;;;;;;;23.09;37.83789;102195.8;;;;-88
2022/06/02 18:42:58;;;;;;;;;;;;;;;22.97;37.93066;102192.6;;;;-86
2022/06/02 18:57:48;;;;;;;;;;;;;;;22.36;38.10938;102189.9;;;;-87
2022/06/02 19:01:40;;;;;;;2.6;1.1;;;;;;;;;;;;;-88
2022/06/02 19:02:56;;;;;;;;;;;;;;;22.08;38.35059;102189.3;;;;-87
2022/06/02 19:17:48;;;;;;;;;;;;;;;21.19;38.74414;102191.1;;;;-86
2022/06/02 19:22:43;;;;;;;;;;;;;;;20.89;38.77539;102193.7;;;;-87
2022/06/02 19:27:53;;;;;;;;;;;;;;;20.6;39.08301;102193.1;;;;-87
2022/06/02 19:32:51;;;;;;;;;;;;;;;20.3;39.30859;102198.8;;;;-87
2022/06/02 19:37:55;;;;;;;;;;;;;;;20.02;39.55859;102198.5;;;;-86
2022/06/02 19:42:52;;;;;;;;;;;;;;;19.73;39.57813;102200.2;;;;-87
2022/06/02 19:47:41;;;;;;;;;;;;;;;19.45;39.99902;102202.2;;;;-88
2022/06/02 19:55:53;;;;;;;;;;;;;;;19.02;40.63379;102199.6;;;;-88
2022/06/02 20:01:12;;;;;;;;;;;;;;;18.73;41.24512;102201.6;;;;-90
2022/06/02 20:01:45;;;;;;;8.5;5.2;;;;;;;;;;;;;-90
2022/06/02 20:05:47;;;;;;;;;;;;;;;18.47;41.78125;102203.7;;;;-90
2022/06/02 20:11:10;;;;;;;;;;;;;;;18.23;42.29297;102207.3;;;;-89
2022/06/02 20:16:11;;;;;;;;;;;;;;;18.01;42.76074;102208.2;;;;-89
2022/06/02 20:20:49;;;;;;;;;;;;;;;17.79;43.17188;102206.8;;;;-90
2022/06/02 20:29:44;;;;;;;;;;;;;;;17.41;44.14551;102210.4;;;;-90
2022/06/02 20:34:52;;;;;;;;;;;;;;;17.23;44.49219;102206.1;;;;-90
2022/06/02 20:40:12;;;;;;;;;;;;;;;17.02;44.89063;102198.1;;;;-89
2022/06/02 20:44:54;;;;;;;;;;;;;;;16.87;45.37305;102200.9;;;;-90
2022/06/02 21:01:30;;;;;;;18.1;8.4;;;;;;;;;;;;;-83
2022/06/02 21:04:01;;;;;;;;;;;;;;;16.28;46.48047;102196.5;;;;-82
2022/06/02 21:08:55;;;;;;;;;;;;;;;16.15;47.05469;102197.1;;;;-85
2022/06/02 21:13:50;;;;;;;;;;;;;;;16;47.23242;102197.4;;;;-84
2022/06/02 21:19:01;;;;;;;;;;;;;;;15.86;47.41992;102205.1;;;;-84
2022/06/02 21:23:49;;;;;;;;;;;;;;;15.75;47.66699;102203.2;;;;-86
2022/06/02 21:28:46;;;;;;;;;;;;;;;15.61;48.01563;102200.7;;;;-83
2022/06/02 21:31:30;;;;;;;11.4;5.5;;;;;;;;;;;;;-83
2022/06/02 21:33:49;;;;;;;;;;;;;;;15.51;48.16113;102200.9;;;;-83
2022/06/02 21:38:53;;;;;;;;;;;;;;;15.4;48.36523;102199.5;;;;-83
2022/06/02 21:43:49;;;;;;;;;;;;;;;15.3;48.69336;102197.5;;;;-85
2022/06/02 21:48:51;;;;;;;;;;;;;;;15.21;48.76172;102195.8;;;;-82
2022/06/02 21:53:54;;;;;;;;;;;;;;;15.13;49.08008;102197.2;;;;-85
2022/06/02 21:58:52;;;;;;;;;;;;;;;15.05;49.16113;102197.9;;;;-83
2022/06/02 22:01:34;;;;;;;6.4;3.6;;;;;;;;;;;;;-83
2022/06/02 22:03:46;;;;;;;;;;;;;;;14.99;49.26758;102193.6;;;;-81
2022/06/02 22:08:52;;;;;;;;;;;;;;;14.92;49.54102;102184.9;;;;-84
2022/06/02 22:13:47;;;;;;;;;;;;;;;14.86;50.07617;102185.8;;;;-84
2022/06/02 22:19:00;;;;;;;;;;;;;;;14.81;50.16113;102182.9;;;;-84
2022/06/02 22:24:00;;;;;;;;;;;;;;;14.75;50.7959;102181.3;;;;-85
2022/06/02 22:29:15;;;;;;;;;;;;;;;14.7;51.02637;102178.2;;;;-84
2022/06/02 22:31:40;;;;;;;4;2.2;;;;;;;;;;;;;-85
2022/06/02 22:33:53;;;;;;;;;;;;;;;14.61;51.77148;102188.3;;;;-83
2022/06/02 22:39:08;;;;;;;;;;;;;;;14.58;51.98242;102189.2;;;;-84
2022/06/02 22:43:58;;;;;;;;;;;;;;;14.56;51.65234;102188.9;;;;-83
2022/06/02 22:48:56;;;;;;;;;;;;;;;14.52;51.54688;102193.1;;;;-84
2022/06/02 22:53:57;;;;;;;;;;;;;;;14.46;51.84473;102191.7;;;;-85
2022/06/02 22:59:10;;;;;;;;;;;;;;;14.41;51.58008;102193;;;;-84
2022/06/02 23:01:45;;;;;;;3.6;1.5;;;;;;;;;;;;;-84
2022/06/02 23:03:55;;;;;;;;;;;;;;;14.39;51.80176;102196.4;;;;-82
2022/06/02 23:08:57;;;;;;;;;;;;;;;14.33;52.4248;102201.3;;;;-83
2022/06/02 23:14:03;;;;;;;;;;;;;;;14.3;51.94824;102199.7;;;;-83
2022/06/02 23:19:02;;;;;;;;;;;;;;;14.25;51.91016;102198.5;;;;-82
2022/06/02 23:29:10;;;;;;;;;;;;;;;14.13;52.73828;102197.6;;;;-83
2022/06/02 23:31:43;;;;;;;2.8;1.5;;;;;;;;;;;;;-83
2022/06/02 23:33:59;;;;;;;;;;;;;;;14.07;52.41602;102195;;;;-83
2022/06/02 23:39:00;;;;;;;;;;;;;;;14.02;52.83789;102195.2;;;;-80
2022/06/02 23:44:15;;;;;;;;;;;;;;;14.01;52.54395;102195.5;;;;-84
2022/06/02 23:48:59;;;;;;;;;;;;;;;13.96;52.5166;102200.6;;;;-83
2022/06/02 23:54:10;;;;;;;;;;;;;;;13.88;52.84375;102201.2;;;;-84
2022/06/02 23:58:58;;;;;;;;;;;;;;;13.86;52.78418;102199.1;;;;-83
